Terminal Aerodrome Forecast
Issued by NWS

Home | Current Version | Previous Version | Text Only | Print | Product List | Glossary On
Versions: 1 2 3 4 5 6 7 8 9 10 11 12 13 14 15 16 17 18 19 20
275
FTUS43 KICT 230522
TAFCNU
TAF
KCNU 230522Z 2306/2406 13005KT P6SM SKC
     FM231700 15009KT P6SM SCT030
      TEMPO 2317/2321 BKN030
     FM232100 16010KT P6SM VCTS SCT040CB
     FM240100 15007KT P6SM BKN050=

USA.gov is the U.S. government's official web portal to all federal, state and local government web resources and services.